sensor_id;sensor_type;location;lat;lon;timestamp;P1;durP1;ratioP1;P2;durP2;ratioP2
40204;SDS011;26963;42.666;23.366;2023-07-20T00:01:28;8.93;;;3.92;;
40204;SDS011;26963;42.666;23.366;2023-07-20T00:03:54;5.85;;;2.63;;
40204;SDS011;26963;42.666;23.366;2023-07-20T00:06:23;12.43;;;6.43;;
40204;SDS011;26963;42.666;23.366;2023-07-20T00:08:50;10.27;;;3.40;;
40204;SDS011;26963;42.666;23.366;2023-07-20T00:11:16;9.18;;;2.72;;
40204;SDS011;26963;42.666;23.366;2023-07-20T00:13:41;6.63;;;3.05;;
40204;SDS011;26963;42.666;23.366;2023-07-20T00:16:07;10.65;;;3.15;;
40204;SDS011;26963;42.666;23.366;2023-07-20T00:18:33;6.50;;;2.63;;
40204;SDS011;26963;42.666;23.366;2023-07-20T00:20:58;10.70;;;3.00;;
40204;SDS011;26963;42.666;23.366;2023-07-20T00:23:25;11.02;;;2.65;;
40204;SDS011;26963;42.666;23.366;2023-07-20T00:25:51;10.45;;;3.10;;
40204;SDS011;26963;42.666;23.366;2023-07-20T00:28:17;6.47;;;3.15;;
40204;SDS011;26963;42.666;23.366;2023-07-20T00:30:42;12.32;;;3.38;;
40204;SDS011;26963;42.666;23.366;2023-07-20T00:33:11;8.10;;;3.17;;
40204;SDS011;26963;42.666;23.366;2023-07-20T00:35:38;10.98;;;2.95;;
40204;SDS011;26963;42.666;23.366;2023-07-20T00:38:04;9.20;;;3.92;;
40204;SDS011;26963;42.666;23.366;2023-07-20T00:40:39;11.05;;;3.70;;
40204;SDS011;26963;42.666;23.366;2023-07-20T00:43:06;9.90;;;3.67;;
40204;SDS011;26963;42.666;23.366;2023-07-20T00:45:32;12.98;;;3.90;;
40204;SDS011;26963;42.666;23.366;2023-07-20T00:47:59;9.02;;;2.80;;
40204;SDS011;26963;42.666;23.366;2023-07-20T00:50:26;7.85;;;2.63;;
40204;SDS011;26963;42.666;23.366;2023-07-20T00:52:54;8.98;;;2.83;;
40204;SDS011;26963;42.666;23.366;2023-07-20T00:55:21;10.85;;;3.30;;
40204;SDS011;26963;42.666;23.366;2023-07-20T00:57:48;7.70;;;2.90;;
40204;SDS011;26963;42.666;23.366;2023-07-20T01:00:14;7.20;;;2.78;;
40204;SDS011;26963;42.666;23.366;2023-07-20T01:02:40;10.23;;;3.63;;
40204;SDS011;26963;42.666;23.366;2023-07-20T01:05:06;11.02;;;4.13;;
40204;SDS011;26963;42.666;23.366;2023-07-20T01:07:34;7.97;;;3.33;;
40204;SDS011;26963;42.666;23.366;2023-07-20T01:10:10;12.15;;;3.80;;
40204;SDS011;26963;42.666;23.366;2023-07-20T01:15:06;8.70;;;2.83;;
40204;SDS011;26963;42.666;23.366;2023-07-20T01:17:33;7.40;;;2.80;;
40204;SDS011;26963;42.666;23.366;2023-07-20T01:20:00;10.20;;;2.90;;
40204;SDS011;26963;42.666;23.366;2023-07-20T01:27:49;5.85;;;2.65;;
40204;SDS011;26963;42.666;23.366;2023-07-20T01:33:08;10.82;;;4.55;;
40204;SDS011;26963;42.666;23.366;2023-07-20T01:35:36;14.32;;;5.32;;
40204;SDS011;26963;42.666;23.366;2023-07-20T01:38:03;10.50;;;4.60;;
40204;SDS011;26963;42.666;23.366;2023-07-20T01:40:29;11.25;;;4.47;;
40204;SDS011;26963;42.666;23.366;2023-07-20T01:42:56;10.23;;;4.05;;
40204;SDS011;26963;42.666;23.366;2023-07-20T01:45:21;10.20;;;4.60;;
40204;SDS011;26963;42.666;23.366;2023-07-20T01:47:47;12.85;;;7.95;;
40204;SDS011;26963;42.666;23.366;2023-07-20T01:50:13;13.10;;;7.82;;
40204;SDS011;26963;42.666;23.366;2023-07-20T01:52:38;13.02;;;6.43;;
40204;SDS011;26963;42.666;23.366;2023-07-20T01:55:04;10.38;;;6.65;;
40204;SDS011;26963;42.666;23.366;2023-07-20T01:57:30;10.27;;;6.22;;
40204;SDS011;26963;42.666;23.366;2023-07-20T01:59:55;10.43;;;3.55;;
40204;SDS011;26963;42.666;23.366;2023-07-20T02:02:22;8.65;;;4.82;;
40204;SDS011;26963;42.666;23.366;2023-07-20T02:04:49;12.48;;;3.83;;
40204;SDS011;26963;42.666;23.366;2023-07-20T02:07:14;7.47;;;2.65;;
40204;SDS011;26963;42.666;23.366;2023-07-20T02:09:40;9.95;;;3.63;;
40204;SDS011;26963;42.666;23.366;2023-07-20T02:12:05;9.15;;;3.33;;
40204;SDS011;26963;42.666;23.366;2023-07-20T02:14:31;7.70;;;3.50;;
40204;SDS011;26963;42.666;23.366;2023-07-20T02:16:57;10.43;;;3.72;;
40204;SDS011;26963;42.666;23.366;2023-07-20T02:19:25;8.48;;;3.13;;
40204;SDS011;26963;42.666;23.366;2023-07-20T02:21:52;8.88;;;3.70;;
40204;SDS011;26963;42.666;23.366;2023-07-20T02:24:19;8.15;;;3.33;;
40204;SDS011;26963;42.666;23.366;2023-07-20T02:26:44;8.60;;;3.30;;
40204;SDS011;26963;42.666;23.366;2023-07-20T02:29:10;8.27;;;3.10;;
40204;SDS011;26963;42.666;23.366;2023-07-20T02:31:38;8.70;;;2.75;;
40204;SDS011;26963;42.666;23.366;2023-07-20T02:34:07;7.07;;;3.00;;
40204;SDS011;26963;42.666;23.366;2023-07-20T02:36:33;9.60;;;3.20;;
40204;SDS011;26963;42.666;23.366;2023-07-20T02:38:59;8.68;;;3.78;;
40204;SDS011;26963;42.666;23.366;2023-07-20T02:41:25;7.82;;;3.28;;
40204;SDS011;26963;42.666;23.366;2023-07-20T02:43:50;13.10;;;3.65;;
40204;SDS011;26963;42.666;23.366;2023-07-20T02:46:16;10.20;;;3.20;;
40204;SDS011;26963;42.666;23.366;2023-07-20T02:48:41;7.25;;;3.85;;
40204;SDS011;26963;42.666;23.366;2023-07-20T02:51:07;8.77;;;3.63;;
40204;SDS011;26963;42.666;23.366;2023-07-20T02:53:33;8.70;;;3.95;;
40204;SDS011;26963;42.666;23.366;2023-07-20T02:55:58;9.38;;;3.55;;
40204;SDS011;26963;42.666;23.366;2023-07-20T02:58:24;7.90;;;3.85;;
40204;SDS011;26963;42.666;23.366;2023-07-20T03:00:50;10.52;;;3.95;;
40204;SDS011;26963;42.666;23.366;2023-07-20T03:03:15;9.70;;;3.53;;
40204;SDS011;26963;42.666;23.366;2023-07-20T03:05:41;9.40;;;3.60;;
40204;SDS011;26963;42.666;23.366;2023-07-20T03:08:07;7.72;;;3.22;;
40204;SDS011;26963;42.666;23.366;2023-07-20T03:10:32;10.27;;;3.63;;
40204;SDS011;26963;42.666;23.366;2023-07-20T03:13:22;8.35;;;3.10;;
40204;SDS011;26963;42.666;23.366;2023-07-20T03:15:49;8.52;;;3.55;;
40204;SDS011;26963;42.666;23.366;2023-07-20T03:18:14;10.82;;;3.80;;
40204;SDS011;26963;42.666;23.366;2023-07-20T03:20:40;7.85;;;3.35;;
40204;SDS011;26963;42.666;23.366;2023-07-20T03:23:06;7.60;;;3.10;;
40204;SDS011;26963;42.666;23.366;2023-07-20T03:25:32;8.60;;;3.47;;
40204;SDS011;26963;42.666;23.366;2023-07-20T03:27:58;10.90;;;3.38;;
40204;SDS011;26963;42.666;23.366;2023-07-20T03:30:24;8.32;;;3.50;;
40204;SDS011;26963;42.666;23.366;2023-07-20T03:32:50;8.05;;;2.95;;
40204;SDS011;26963;42.666;23.366;2023-07-20T03:35:16;7.15;;;3.00;;
40204;SDS011;26963;42.666;23.366;2023-07-20T03:37:42;13.38;;;3.50;;
40204;SDS011;26963;42.666;23.366;2023-07-20T03:40:08;10.77;;;3.75;;
40204;SDS011;26963;42.666;23.366;2023-07-20T03:42:34;8.52;;;4.18;;
40204;SDS011;26963;42.666;23.366;2023-07-20T03:45:00;11.02;;;3.83;;
40204;SDS011;26963;42.666;23.366;2023-07-20T03:47:25;8.82;;;3.40;;
40204;SDS011;26963;42.666;23.366;2023-07-20T03:49:51;10.00;;;4.25;;
40204;SDS011;26963;42.666;23.366;2023-07-20T03:52:16;10.85;;;3.92;;
40204;SDS011;26963;42.666;23.366;2023-07-20T03:54:42;8.13;;;3.72;;
40204;SDS011;26963;42.666;23.366;2023-07-20T03:57:07;12.98;;;4.30;;
40204;SDS011;26963;42.666;23.366;2023-07-20T03:59:34;13.38;;;4.55;;
40204;SDS011;26963;42.666;23.366;2023-07-20T04:02:00;13.07;;;4.13;;
40204;SDS011;26963;42.666;23.366;2023-07-20T04:04:25;12.63;;;3.92;;
40204;SDS011;26963;42.666;23.366;2023-07-20T04:06:51;13.10;;;4.13;;
40204;SDS011;26963;42.666;23.366;2023-07-20T04:09:16;10.13;;;3.85;;
40204;SDS011;26963;42.666;23.366;2023-07-20T04:11:42;10.02;;;3.55;;
40204;SDS011;26963;42.666;23.366;2023-07-20T04:14:07;9.75;;;3.80;;
40204;SDS011;26963;42.666;23.366;2023-07-20T04:16:33;11.48;;;4.05;;
40204;SDS011;26963;42.666;23.366;2023-07-20T04:18:59;14.07;;;4.07;;
40204;SDS011;26963;42.666;23.366;2023-07-20T04:21:25;14.68;;;4.47;;
40204;SDS011;26963;42.666;23.366;2023-07-20T04:23:51;13.07;;;4.30;;
40204;SDS011;26963;42.666;23.366;2023-07-20T04:26:17;12.38;;;3.50;;
40204;SDS011;26963;42.666;23.366;2023-07-20T04:28:42;10.63;;;3.58;;
40204;SDS011;26963;42.666;23.366;2023-07-20T04:31:15;9.35;;;3.50;;
40204;SDS011;26963;42.666;23.366;2023-07-20T04:33:41;15.10;;;3.78;;
40204;SDS011;26963;42.666;23.366;2023-07-20T04:36:07;12.70;;;3.90;;
40204;SDS011;26963;42.666;23.366;2023-07-20T04:38:33;10.05;;;4.05;;
40204;SDS011;26963;42.666;23.366;2023-07-20T04:40:58;10.55;;;4.10;;
40204;SDS011;26963;42.666;23.366;2023-07-20T04:43:24;11.75;;;4.20;;
40204;SDS011;26963;42.666;23.366;2023-07-20T04:45:50;11.98;;;3.97;;
40204;SDS011;26963;42.666;23.366;2023-07-20T04:48:16;9.02;;;4.03;;
40204;SDS011;26963;42.666;23.366;2023-07-20T04:50:43;9.35;;;3.95;;
40204;SDS011;26963;42.666;23.366;2023-07-20T04:53:10;8.82;;;3.63;;
40204;SDS011;26963;42.666;23.366;2023-07-20T04:55:39;9.40;;;3.83;;
40204;SDS011;26963;42.666;23.366;2023-07-20T04:58:05;10.85;;;4.28;;
40204;SDS011;26963;42.666;23.366;2023-07-20T05:00:35;11.52;;;4.00;;
40204;SDS011;26963;42.666;23.366;2023-07-20T05:03:03;10.02;;;4.72;;
40204;SDS011;26963;42.666;23.366;2023-07-20T05:05:30;10.88;;;3.90;;
40204;SDS011;26963;42.666;23.366;2023-07-20T05:07:56;10.55;;;4.63;;
40204;SDS011;26963;42.666;23.366;2023-07-20T05:10:22;9.27;;;5.07;;
40204;SDS011;26963;42.666;23.366;2023-07-20T05:12:48;10.60;;;4.72;;
40204;SDS011;26963;42.666;23.366;2023-07-20T05:15:14;9.35;;;4.80;;
40204;SDS011;26963;42.666;23.366;2023-07-20T05:17:40;9.63;;;4.60;;
40204;SDS011;26963;42.666;23.366;2023-07-20T05:20:06;11.63;;;4.65;;
40204;SDS011;26963;42.666;23.366;2023-07-20T05:22:35;8.25;;;4.45;;
40204;SDS011;26963;42.666;23.366;2023-07-20T05:25:05;11.73;;;4.18;;
40204;SDS011;26963;42.666;23.366;2023-07-20T05:27:32;10.07;;;4.35;;
40204;SDS011;26963;42.666;23.366;2023-07-20T05:29:57;13.57;;;5.13;;
40204;SDS011;26963;42.666;23.366;2023-07-20T05:32:23;14.65;;;5.72;;
40204;SDS011;26963;42.666;23.366;2023-07-20T05:34:51;16.45;;;6.15;;
40204;SDS011;26963;42.666;23.366;2023-07-20T05:37:17;12.73;;;4.45;;
40204;SDS011;26963;42.666;23.366;2023-07-20T05:39:43;10.68;;;4.72;;
40204;SDS011;26963;42.666;23.366;2023-07-20T05:42:08;13.32;;;4.75;;
40204;SDS011;26963;42.666;23.366;2023-07-20T05:44:34;16.25;;;5.22;;
40204;SDS011;26963;42.666;23.366;2023-07-20T05:46:59;11.70;;;5.22;;
40204;SDS011;26963;42.666;23.366;2023-07-20T05:49:25;10.63;;;3.95;;
40204;SDS011;26963;42.666;23.366;2023-07-20T05:51:51;10.98;;;5.18;;
40204;SDS011;26963;42.666;23.366;2023-07-20T05:54:16;14.15;;;4.40;;
40204;SDS011;26963;42.666;23.366;2023-07-20T05:56:42;9.13;;;4.03;;
40204;SDS011;26963;42.666;23.366;2023-07-20T05:59:08;10.38;;;4.05;;
40204;SDS011;26963;42.666;23.366;2023-07-20T06:01:33;12.85;;;4.45;;
40204;SDS011;26963;42.666;23.366;2023-07-20T06:03:59;17.50;;;4.60;;
40204;SDS011;26963;42.666;23.366;2023-07-20T06:06:24;9.07;;;3.92;;
40204;SDS011;26963;42.666;23.366;2023-07-20T06:08:50;11.48;;;4.25;;
40204;SDS011;26963;42.666;23.366;2023-07-20T06:11:16;11.05;;;4.35;;
40204;SDS011;26963;42.666;23.366;2023-07-20T06:13:42;13.18;;;4.80;;
40204;SDS011;26963;42.666;23.366;2023-07-20T06:16:08;13.98;;;4.35;;
40204;SDS011;26963;42.666;23.366;2023-07-20T06:18:34;9.18;;;4.43;;
40204;SDS011;26963;42.666;23.366;2023-07-20T06:20:59;10.52;;;5.60;;
40204;SDS011;26963;42.666;23.366;2023-07-20T06:23:25;8.63;;;4.05;;
40204;SDS011;26963;42.666;23.366;2023-07-20T06:25:51;14.90;;;4.30;;
40204;SDS011;26963;42.666;23.366;2023-07-20T06:28:16;10.60;;;3.80;;
40204;SDS011;26963;42.666;23.366;2023-07-20T06:30:43;9.77;;;4.03;;
40204;SDS011;26963;42.666;23.366;2023-07-20T06:33:09;10.65;;;4.35;;
40204;SDS011;26963;42.666;23.366;2023-07-20T06:35:34;12.02;;;3.50;;
40204;SDS011;26963;42.666;23.366;2023-07-20T06:38:01;12.00;;;3.90;;
40204;SDS011;26963;42.666;23.366;2023-07-20T06:40:29;9.57;;;4.70;;
40204;SDS011;26963;42.666;23.366;2023-07-20T06:42:55;13.63;;;4.63;;
40204;SDS011;26963;42.666;23.366;2023-07-20T06:45:21;16.15;;;5.20;;
40204;SDS011;26963;42.666;23.366;2023-07-20T06:47:46;16.13;;;4.97;;
40204;SDS011;26963;42.666;23.366;2023-07-20T06:50:12;11.23;;;4.93;;
40204;SDS011;26963;42.666;23.366;2023-07-20T06:52:38;15.40;;;4.82;;
40204;SDS011;26963;42.666;23.366;2023-07-20T06:55:05;12.75;;;4.95;;
40204;SDS011;26963;42.666;23.366;2023-07-20T06:57:31;16.92;;;4.72;;
40204;SDS011;26963;42.666;23.366;2023-07-20T06:59:57;16.40;;;5.22;;
40204;SDS011;26963;42.666;23.366;2023-07-20T07:02:23;16.67;;;5.05;;
40204;SDS011;26963;42.666;23.366;2023-07-20T07:04:48;13.80;;;4.47;;
40204;SDS011;26963;42.666;23.366;2023-07-20T07:07:14;14.05;;;4.13;;
40204;SDS011;26963;42.666;23.366;2023-07-20T07:09:40;15.05;;;4.32;;
40204;SDS011;26963;42.666;23.366;2023-07-20T07:12:06;15.60;;;4.53;;
40204;SDS011;26963;42.666;23.366;2023-07-20T07:14:32;14.23;;;4.55;;
40204;SDS011;26963;42.666;23.366;2023-07-20T07:16:57;13.25;;;4.50;;
40204;SDS011;26963;42.666;23.366;2023-07-20T07:19:23;15.90;;;4.93;;
40204;SDS011;26963;42.666;23.366;2023-07-20T07:21:48;9.98;;;4.45;;
40204;SDS011;26963;42.666;23.366;2023-07-20T07:24:14;14.13;;;4.95;;
40204;SDS011;26963;42.666;23.366;2023-07-20T07:26:40;12.15;;;4.35;;
40204;SDS011;26963;42.666;23.366;2023-07-20T07:29:05;15.32;;;4.85;;
40204;SDS011;26963;42.666;23.366;2023-07-20T07:31:33;14.68;;;4.85;;
40204;SDS011;26963;42.666;23.366;2023-07-20T07:34:00;12.02;;;4.35;;
40204;SDS011;26963;42.666;23.366;2023-07-20T07:36:26;12.65;;;4.95;;
40204;SDS011;26963;42.666;23.366;2023-07-20T07:38:51;10.93;;;4.88;;
40204;SDS011;26963;42.666;23.366;2023-07-20T07:41:17;10.75;;;4.32;;
40204;SDS011;26963;42.666;23.366;2023-07-20T07:43:42;13.18;;;4.72;;
40204;SDS011;26963;42.666;23.366;2023-07-20T07:46:08;10.45;;;4.63;;
40204;SDS011;26963;42.666;23.366;2023-07-20T07:48:33;11.30;;;4.22;;
40204;SDS011;26963;42.666;23.366;2023-07-20T07:50:59;14.68;;;4.47;;
40204;SDS011;26963;42.666;23.366;2023-07-20T07:53:24;10.05;;;3.88;;
40204;SDS011;26963;42.666;23.366;2023-07-20T07:55:51;12.45;;;4.25;;
40204;SDS011;26963;42.666;23.366;2023-07-20T07:58:17;14.50;;;4.40;;
40204;SDS011;26963;42.666;23.366;2023-07-20T08:00:42;12.32;;;4.35;;
40204;SDS011;26963;42.666;23.366;2023-07-20T08:03:09;11.85;;;4.28;;
40204;SDS011;26963;42.666;23.366;2023-07-20T08:05:35;12.75;;;4.35;;
40204;SDS011;26963;42.666;23.366;2023-07-20T08:08:01;9.70;;;4.00;;
40204;SDS011;26963;42.666;23.366;2023-07-20T08:10:28;10.77;;;4.90;;
40204;SDS011;26963;42.666;23.366;2023-07-20T08:12:54;11.88;;;4.55;;
40204;SDS011;26963;42.666;23.366;2023-07-20T08:15:20;12.88;;;4.15;;
40204;SDS011;26963;42.666;23.366;2023-07-20T08:17:45;13.75;;;4.57;;
40204;SDS011;26963;42.666;23.366;2023-07-20T08:20:12;15.63;;;4.57;;
40204;SDS011;26963;42.666;23.366;2023-07-20T08:22:38;15.45;;;4.15;;
40204;SDS011;26963;42.666;23.366;2023-07-20T08:25:08;13.15;;;4.40;;
40204;SDS011;26963;42.666;23.366;2023-07-20T08:27:34;9.95;;;4.90;;
40204;SDS011;26963;42.666;23.366;2023-07-20T08:30:00;11.50;;;3.95;;
40204;SDS011;26963;42.666;23.366;2023-07-20T08:32:26;13.90;;;4.60;;
40204;SDS011;26963;42.666;23.366;2023-07-20T08:34:52;9.63;;;3.50;;
40204;SDS011;26963;42.666;23.366;2023-07-20T08:37:17;12.13;;;4.05;;
40204;SDS011;26963;42.666;23.366;2023-07-20T08:39:43;13.60;;;4.15;;
40204;SDS011;26963;42.666;23.366;2023-07-20T08:42:09;12.77;;;3.67;;
40204;SDS011;26963;42.666;23.366;2023-07-20T08:44:36;11.75;;;4.95;;
40204;SDS011;26963;42.666;23.366;2023-07-20T08:47:03;10.13;;;3.30;;
40204;SDS011;26963;42.666;23.366;2023-07-20T08:49:31;10.70;;;3.78;;
40204;SDS011;26963;42.666;23.366;2023-07-20T08:51:57;7.85;;;3.10;;
40204;SDS011;26963;42.666;23.366;2023-07-20T08:54:24;13.25;;;3.22;;
40204;SDS011;26963;42.666;23.366;2023-07-20T08:56:54;10.75;;;3.47;;
40204;SDS011;26963;42.666;23.366;2023-07-20T08:59:22;8.35;;;3.20;;
40204;SDS011;26963;42.666;23.366;2023-07-20T09:01:50;10.52;;;3.60;;
40204;SDS011;26963;42.666;23.366;2023-07-20T09:04:17;9.05;;;3.55;;
40204;SDS011;26963;42.666;23.366;2023-07-20T09:06:43;11.50;;;3.47;;
40204;SDS011;26963;42.666;23.366;2023-07-20T09:09:09;10.70;;;3.35;;
40204;SDS011;26963;42.666;23.366;2023-07-20T09:11:34;10.73;;;3.42;;
40204;SDS011;26963;42.666;23.366;2023-07-20T09:14:06;13.02;;;3.22;;
40204;SDS011;26963;42.666;23.366;2023-07-20T09:16:46;8.48;;;3.13;;
40204;SDS011;26963;42.666;23.366;2023-07-20T09:19:16;13.80;;;3.65;;
40204;SDS011;26963;42.666;23.366;2023-07-20T09:21:49;8.30;;;3.08;;
40204;SDS011;26963;42.666;23.366;2023-07-20T09:24:17;10.95;;;3.20;;
40204;SDS011;26963;42.666;23.366;2023-07-20T09:26:45;11.32;;;3.33;;
40204;SDS011;26963;42.666;23.366;2023-07-20T09:29:13;8.52;;;3.03;;
40204;SDS011;26963;42.666;23.366;2023-07-20T09:31:40;10.05;;;3.20;;
40204;SDS011;26963;42.666;23.366;2023-07-20T09:34:05;9.85;;;3.20;;
40204;SDS011;26963;42.666;23.366;2023-07-20T09:36:35;7.90;;;2.83;;
40204;SDS011;26963;42.666;23.366;2023-07-20T09:39:02;11.25;;;3.40;;
40204;SDS011;26963;42.666;23.366;2023-07-20T09:41:29;8.02;;;3.15;;
40204;SDS011;26963;42.666;23.366;2023-07-20T09:44:05;9.57;;;3.10;;
40204;SDS011;26963;42.666;23.366;2023-07-20T09:46:44;10.50;;;3.75;;
40204;SDS011;26963;42.666;23.366;2023-07-20T09:49:11;9.13;;;3.60;;
40204;SDS011;26963;42.666;23.366;2023-07-20T09:51:37;9.15;;;3.42;;
40204;SDS011;26963;42.666;23.366;2023-07-20T09:54:03;9.07;;;3.40;;
40204;SDS011;26963;42.666;23.366;2023-07-20T09:56:29;13.75;;;3.38;;
40204;SDS011;26963;42.666;23.366;2023-07-20T09:58:55;7.10;;;2.80;;
40204;SDS011;26963;42.666;23.366;2023-07-20T10:01:22;12.73;;;3.33;;
40204;SDS011;26963;42.666;23.366;2023-07-20T10:03:48;9.00;;;2.92;;
40204;SDS011;26963;42.666;23.366;2023-07-20T10:06:20;7.80;;;2.58;;
40204;SDS011;26963;42.666;23.366;2023-07-20T10:08:49;8.25;;;3.05;;
40204;SDS011;26963;42.666;23.366;2023-07-20T10:11:18;9.05;;;3.40;;
40204;SDS011;26963;42.666;23.366;2023-07-20T10:13:47;5.93;;;2.63;;
40204;SDS011;26963;42.666;23.366;2023-07-20T10:16:26;5.95;;;2.83;;
40204;SDS011;26963;42.666;23.366;2023-07-20T10:18:59;6.70;;;2.90;;
40204;SDS011;26963;42.666;23.366;2023-07-20T10:21:31;8.00;;;2.95;;
40204;SDS011;26963;42.666;23.366;2023-07-20T10:24:00;8.10;;;2.97;;
40204;SDS011;26963;42.666;23.366;2023-07-20T10:26:27;8.75;;;2.80;;
40204;SDS011;26963;42.666;23.366;2023-07-20T10:28:54;13.18;;;3.70;;
40204;SDS011;26963;42.666;23.366;2023-07-20T10:31:20;9.32;;;3.75;;
40204;SDS011;26963;42.666;23.366;2023-07-20T10:33:48;14.18;;;3.08;;
40204;SDS011;26963;42.666;23.366;2023-07-20T10:36:15;8.38;;;2.88;;
40204;SDS011;26963;42.666;23.366;2023-07-20T10:38:41;8.43;;;3.10;;
40204;SDS011;26963;42.666;23.366;2023-07-20T10:43:46;8.90;;;2.72;;
40204;SDS011;26963;42.666;23.366;2023-07-20T10:46:12;8.95;;;2.97;;
40204;SDS011;26963;42.666;23.366;2023-07-20T10:51:29;10.07;;;3.00;;
40204;SDS011;26963;42.666;23.366;2023-07-20T10:53:56;7.60;;;2.85;;
40204;SDS011;26963;42.666;23.366;2023-07-20T10:56:25;10.18;;;3.00;;
40204;SDS011;26963;42.666;23.366;2023-07-20T11:01:27;9.35;;;2.90;;
40204;SDS011;26963;42.666;23.366;2023-07-20T11:03:57;8.40;;;2.88;;
40204;SDS011;26963;42.666;23.366;2023-07-20T11:08:55;7.82;;;2.83;;
40204;SDS011;26963;42.666;23.366;2023-07-20T11:11:40;9.65;;;2.95;;
40204;SDS011;26963;42.666;23.366;2023-07-20T11:14:31;7.47;;;2.60;;
40204;SDS011;26963;42.666;23.366;2023-07-20T11:17:10;9.65;;;3.42;;
40204;SDS011;26963;42.666;23.366;2023-07-20T11:19:37;10.30;;;3.20;;
40204;SDS011;26963;42.666;23.366;2023-07-20T11:22:05;10.38;;;3.72;;
40204;SDS011;26963;42.666;23.366;2023-07-20T11:24:37;8.20;;;3.17;;
40204;SDS011;26963;42.666;23.366;2023-07-20T11:27:04;9.07;;;3.05;;
40204;SDS011;26963;42.666;23.366;2023-07-20T11:29:30;9.18;;;3.45;;
40204;SDS011;26963;42.666;23.366;2023-07-20T11:31:56;8.25;;;3.17;;
40204;SDS011;26963;42.666;23.366;2023-07-20T11:34:24;5.28;;;2.90;;
40204;SDS011;26963;42.666;23.366;2023-07-20T11:36:51;7.20;;;3.22;;
40204;SDS011;26963;42.666;23.366;2023-07-20T11:39:17;8.20;;;3.88;;
40204;SDS011;26963;42.666;23.366;2023-07-20T11:41:51;7.30;;;3.45;;
40204;SDS011;26963;42.666;23.366;2023-07-20T11:44:18;6.18;;;3.38;;
40204;SDS011;26963;42.666;23.366;2023-07-20T11:47:13;10.88;;;5.15;;
40204;SDS011;26963;42.666;23.366;2023-07-20T11:49:39;11.93;;;4.60;;
40204;SDS011;26963;42.666;23.366;2023-07-20T11:52:06;10.55;;;3.70;;
40204;SDS011;26963;42.666;23.366;2023-07-20T11:54:39;8.30;;;3.63;;
40204;SDS011;26963;42.666;23.366;2023-07-20T11:57:06;8.43;;;3.80;;
40204;SDS011;26963;42.666;23.366;2023-07-20T11:59:31;8.60;;;3.50;;
40204;SDS011;26963;42.666;23.366;2023-07-20T12:02:06;9.63;;;4.20;;
40204;SDS011;26963;42.666;23.366;2023-07-20T12:04:32;10.73;;;4.60;;
40204;SDS011;26963;42.666;23.366;2023-07-20T12:06:59;7.97;;;4.40;;
40204;SDS011;26963;42.666;23.366;2023-07-20T12:09:25;7.38;;;4.18;;
40204;SDS011;26963;42.666;23.366;2023-07-20T12:11:50;12.40;;;5.18;;
40204;SDS011;26963;42.666;23.366;2023-07-20T12:14:16;7.60;;;4.32;;
40204;SDS011;26963;42.666;23.366;2023-07-20T12:16:42;8.48;;;4.25;;
40204;SDS011;26963;42.666;23.366;2023-07-20T12:19:08;11.00;;;3.75;;
40204;SDS011;26963;42.666;23.366;2023-07-20T12:21:36;8.63;;;4.07;;
40204;SDS011;26963;42.666;23.366;2023-07-20T12:24:03;10.27;;;4.70;;
40204;SDS011;26963;42.666;23.366;2023-07-20T12:26:30;9.82;;;4.68;;
40204;SDS011;26963;42.666;23.366;2023-07-20T12:28:56;13.07;;;4.20;;
40204;SDS011;26963;42.666;23.366;2023-07-20T12:31:23;12.10;;;3.63;;
40204;SDS011;26963;42.666;23.366;2023-07-20T12:33:49;10.77;;;4.18;;
40204;SDS011;26963;42.666;23.366;2023-07-20T12:36:16;11.85;;;5.68;;
40204;SDS011;26963;42.666;23.366;2023-07-20T12:38:42;7.50;;;3.60;;
40204;SDS011;26963;42.666;23.366;2023-07-20T12:41:09;11.52;;;5.10;;
40204;SDS011;26963;42.666;23.366;2023-07-20T12:43:37;9.18;;;3.50;;
40204;SDS011;26963;42.666;23.366;2023-07-20T12:46:03;7.82;;;3.72;;
40204;SDS011;26963;42.666;23.366;2023-07-20T12:48:28;10.68;;;4.05;;
40204;SDS011;26963;42.666;23.366;2023-07-20T12:50:54;11.95;;;3.80;;
40204;SDS011;26963;42.666;23.366;2023-07-20T12:53:20;9.90;;;3.83;;
40204;SDS011;26963;42.666;23.366;2023-07-20T12:55:46;10.55;;;3.90;;
40204;SDS011;26963;42.666;23.366;2023-07-20T12:58:12;10.10;;;3.75;;
40204;SDS011;26963;42.666;23.366;2023-07-20T13:00:38;9.35;;;3.75;;
40204;SDS011;26963;42.666;23.366;2023-07-20T13:03:04;10.82;;;4.20;;
40204;SDS011;26963;42.666;23.366;2023-07-20T13:05:30;10.68;;;4.00;;
40204;SDS011;26963;42.666;23.366;2023-07-20T13:08:00;9.52;;;3.50;;
40204;SDS011;26963;42.666;23.366;2023-07-20T13:10:26;12.43;;;4.03;;
40204;SDS011;26963;42.666;23.366;2023-07-20T13:12:52;14.23;;;3.83;;
40204;SDS011;26963;42.666;23.366;2023-07-20T13:15:17;10.30;;;3.35;;
40204;SDS011;26963;42.666;23.366;2023-07-20T13:17:44;9.23;;;3.72;;
40204;SDS011;26963;42.666;23.366;2023-07-20T13:20:10;11.15;;;3.75;;
40204;SDS011;26963;42.666;23.366;2023-07-20T13:22:40;9.18;;;3.70;;
40204;SDS011;26963;42.666;23.366;2023-07-20T13:25:06;7.90;;;3.38;;
40204;SDS011;26963;42.666;23.366;2023-07-20T13:27:33;10.60;;;3.83;;
40204;SDS011;26963;42.666;23.366;2023-07-20T13:29:59;11.20;;;3.10;;
40204;SDS011;26963;42.666;23.366;2023-07-20T13:32:26;10.23;;;3.13;;
40204;SDS011;26963;42.666;23.366;2023-07-20T13:34:52;9.40;;;3.75;;
40204;SDS011;26963;42.666;23.366;2023-07-20T13:37:18;8.40;;;3.38;;
40204;SDS011;26963;42.666;23.366;2023-07-20T13:39:44;11.80;;;3.70;;
40204;SDS011;26963;42.666;23.366;2023-07-20T13:42:10;8.02;;;3.15;;
40204;SDS011;26963;42.666;23.366;2023-07-20T13:44:37;11.93;;;3.38;;
40204;SDS011;26963;42.666;23.366;2023-07-20T13:47:02;9.02;;;3.40;;
40204;SDS011;26963;42.666;23.366;2023-07-20T13:49:30;9.60;;;3.35;;
40204;SDS011;26963;42.666;23.366;2023-07-20T13:51:57;10.32;;;3.47;;
40204;SDS011;26963;42.666;23.366;2023-07-20T13:54:25;10.38;;;3.17;;
40204;SDS011;26963;42.666;23.366;2023-07-20T13:56:51;10.18;;;3.38;;
40204;SDS011;26963;42.666;23.366;2023-07-20T13:59:17;7.38;;;2.97;;
40204;SDS011;26963;42.666;23.366;2023-07-20T14:01:43;8.00;;;3.38;;
40204;SDS011;26963;42.666;23.366;2023-07-20T14:04:08;11.32;;;3.70;;
40204;SDS011;26963;42.666;23.366;2023-07-20T14:06:34;12.77;;;5.28;;
40204;SDS011;26963;42.666;23.366;2023-07-20T14:09:00;10.82;;;3.42;;
40204;SDS011;26963;42.666;23.366;2023-07-20T14:11:25;11.02;;;4.13;;
40204;SDS011;26963;42.666;23.366;2023-07-20T14:13:51;7.78;;;3.85;;
40204;SDS011;26963;42.666;23.366;2023-07-20T14:16:20;10.60;;;4.97;;
40204;SDS011;26963;42.666;23.366;2023-07-20T14:18:46;10.55;;;3.72;;
40204;SDS011;26963;42.666;23.366;2023-07-20T14:21:14;13.65;;;3.85;;
40204;SDS011;26963;42.666;23.366;2023-07-20T14:23:44;11.85;;;4.82;;
40204;SDS011;26963;42.666;23.366;2023-07-20T14:26:11;10.38;;;4.82;;
40204;SDS011;26963;42.666;23.366;2023-07-20T14:28:37;12.88;;;3.75;;
40204;SDS011;26963;42.666;23.366;2023-07-20T14:31:03;7.88;;;3.65;;
40204;SDS011;26963;42.666;23.366;2023-07-20T14:33:28;9.25;;;3.55;;
40204;SDS011;26963;42.666;23.366;2023-07-20T14:35:54;9.20;;;3.83;;
40204;SDS011;26963;42.666;23.366;2023-07-20T14:38:20;8.85;;;3.92;;
40204;SDS011;26963;42.666;23.366;2023-07-20T14:40:45;11.43;;;4.20;;
40204;SDS011;26963;42.666;23.366;2023-07-20T14:43:11;9.05;;;4.28;;
40204;SDS011;26963;42.666;23.366;2023-07-20T14:45:36;12.25;;;4.18;;